createdAt,value
2018-06-13T00:02:48.597Z,15.10
2018-06-13T00:05:16.689Z,15.00
2018-06-13T00:07:44.752Z,15.00
2018-06-13T00:10:12.940Z,15.00
2018-06-13T00:12:41.013Z,15.00
2018-06-13T00:15:09.199Z,15.00
2018-06-13T00:17:37.264Z,15.10
2018-06-13T00:20:05.308Z,15.00
2018-06-13T00:25:01.445Z,15.00
2018-06-13T00:29:57.584Z,15.00
2018-06-13T00:32:25.740Z,15.00
2018-06-13T00:34:53.779Z,15.00
2018-06-13T00:37:21.825Z,14.90
2018-06-13T00:39:50.033Z,14.90
2018-06-13T00:42:18.176Z,14.90
2018-06-13T00:44:46.480Z,14.90
2018-06-13T00:47:14.534Z,14.90
2018-06-13T00:49:42.728Z,14.90
2018-06-13T00:52:10.784Z,14.90
2018-06-13T00:54:38.875Z,14.90
2018-06-13T00:57:07.135Z,14.90
2018-06-13T00:59:35.334Z,14.90
2018-06-13T01:02:03.486Z,14.90
2018-06-13T01:04:31.688Z,14.90
2018-06-13T01:06:59.773Z,14.90
2018-06-13T01:09:27.743Z,14.90
2018-06-13T01:11:55.892Z,14.90
2018-06-13T01:14:23.959Z,14.90
2018-06-13T01:16:52.052Z,14.90
2018-06-13T01:19:20.092Z,14.80
2018-06-13T01:21:48.184Z,14.80
2018-06-13T01:24:16.457Z,14.80
2018-06-13T01:26:44.535Z,14.70
2018-06-13T01:29:12.694Z,14.70
2018-06-13T01:31:40.788Z,14.70
2018-06-13T01:34:08.987Z,14.70
2018-06-13T01:36:37.127Z,14.70
2018-06-13T01:39:06.983Z,14.70
2018-06-13T01:41:34.992Z,14.70
2018-06-13T01:46:31.044Z,14.60
2018-06-13T01:51:27.197Z,14.60
2018-06-13T01:53:55.316Z,14.70
2018-06-13T01:56:23.329Z,14.70
2018-06-13T02:01:19.385Z,14.70
2018-06-13T02:03:47.504Z,14.70
2018-06-13T02:06:15.544Z,14.70
2018-06-13T02:08:43.699Z,14.70
2018-06-13T02:13:39.666Z,14.70
2018-06-13T02:16:07.947Z,14.70
2018-06-13T02:18:46.727Z,14.70
2018-06-13T02:21:17.620Z,14.70
2018-06-13T02:23:52.577Z,14.70
2018-06-13T02:26:23.538Z,14.70
2018-06-13T02:28:52.888Z,14.70
2018-06-13T02:31:21.847Z,14.80
2018-06-13T02:33:49.979Z,14.80
2018-06-13T02:36:18.024Z,14.80
2018-06-13T02:38:46.478Z,14.90
2018-06-13T02:43:42.356Z,14.90
2018-06-13T02:46:10.404Z,14.90
2018-06-13T02:48:38.618Z,15.00
2018-06-13T02:51:06.673Z,15.00
2018-06-13T02:53:34.970Z,15.00
2018-06-13T02:56:03.131Z,15.00
2018-06-13T02:58:31.201Z,15.00
2018-06-13T03:00:59.282Z,15.10
2018-06-13T03:03:27.439Z,15.10
2018-06-13T03:05:55.793Z,15.10
2018-06-13T03:13:19.653Z,15.20
2018-06-13T03:15:47.726Z,15.20
2018-06-13T03:18:15.728Z,15.20
2018-06-13T03:20:43.980Z,15.20
2018-06-13T03:23:12.139Z,15.20
2018-06-13T03:25:40.203Z,15.30
2018-06-13T03:28:08.296Z,15.30
2018-06-13T03:30:38.739Z,15.30
2018-06-13T03:35:34.756Z,15.30
2018-06-13T03:38:02.968Z,15.30
2018-06-13T03:40:30.997Z,15.40
2018-06-13T03:42:59.089Z,15.40
2018-06-13T03:45:27.154Z,15.40
2018-06-13T03:47:55.199Z,15.30
2018-06-13T03:57:46.879Z,15.30
2018-06-13T04:02:42.749Z,15.30
2018-06-13T04:05:10.914Z,15.30
2018-06-13T04:07:39.094Z,15.20
2018-06-13T04:12:58.589Z,15.00
2018-06-13T04:15:26.728Z,15.00
2018-06-13T04:20:22.784Z,15.00
2018-06-13T04:25:18.869Z,14.80
2018-06-13T04:27:46.928Z,14.80
2018-06-13T04:30:15.068Z,14.80
2018-06-13T04:35:10.943Z,14.70
2018-06-13T04:37:39.008Z,14.60
2018-06-13T04:40:07.356Z,14.60
2018-06-13T04:47:31.281Z,14.40
2018-06-13T04:49:59.541Z,14.30
2018-06-13T04:52:27.551Z,14.30
2018-06-13T04:54:55.631Z,14.30
2018-06-13T04:57:23.686Z,14.30
2018-06-13T04:59:51.772Z,14.20
2018-06-13T05:02:19.835Z,14.10
2018-06-13T05:04:47.921Z,14.10
2018-06-13T05:07:15.996Z,14.10
2018-06-13T05:09:44.168Z,14.00
2018-06-13T05:12:12.403Z,14.00
2018-06-13T05:14:40.422Z,14.00
2018-06-13T05:17:08.489Z,13.90
2018-06-13T05:19:36.485Z,13.90
2018-06-13T05:22:04.642Z,13.90
2018-06-13T05:24:32.707Z,13.80
2018-06-13T05:27:00.782Z,13.80
2018-06-13T05:29:28.940Z,13.80
2018-06-13T05:31:57.038Z,13.80
2018-06-13T05:34:25.227Z,13.80
2018-06-13T05:36:53.359Z,13.70
2018-06-13T05:39:21.446Z,13.80
2018-06-13T05:41:49.560Z,13.70
2018-06-13T05:44:17.594Z,13.50
2018-06-13T05:46:45.855Z,13.50
2018-06-13T05:49:13.974Z,13.40
2018-06-13T05:51:42.000Z,13.30
2018-06-13T05:54:10.104Z,13.30
2018-06-13T05:56:38.145Z,13.30
2018-06-13T06:01:34.101Z,13.20
2018-06-13T06:04:02.205Z,13.20
2018-06-13T06:06:30.272Z,13.20
2018-06-13T06:08:58.411Z,13.20
2018-06-13T06:11:26.506Z,13.20
2018-06-13T06:13:54.766Z,13.20
2018-06-13T06:16:22.860Z,13.10
2018-06-13T06:18:50.913Z,13.10
2018-06-13T06:21:19.017Z,13.20
2018-06-13T06:23:47.067Z,13.20
2018-06-13T06:26:15.257Z,13.10
2018-06-13T06:28:43.305Z,13.10
2018-06-13T06:31:11.403Z,13.10
2018-06-13T06:33:39.463Z,13.10
2018-06-13T06:36:07.548Z,13.10
2018-06-13T06:38:35.644Z,13.10
2018-06-13T06:41:03.761Z,13.10
2018-06-13T06:45:59.813Z,13.10
2018-06-13T06:50:55.876Z,13.10
2018-06-13T06:53:23.971Z,13.10
2018-06-13T06:55:52.011Z,13.10
2018-06-13T06:58:20.123Z,13.10
2018-06-13T07:00:48.144Z,12.90
2018-06-13T07:05:44.017Z,12.80
2018-06-13T07:08:12.065Z,12.80
2018-06-13T07:10:40.045Z,12.80
2018-06-13T07:13:08.134Z,12.70
2018-06-13T07:15:36.411Z,12.60
2018-06-13T07:18:04.485Z,12.60
2018-06-13T07:20:32.564Z,12.50
2018-06-13T07:23:00.636Z,12.50
2018-06-13T07:25:28.701Z,12.50
2018-06-13T07:27:56.865Z,12.40
2018-06-13T07:30:24.945Z,12.50
2018-06-13T07:32:53.216Z,12.40
2018-06-13T07:35:21.427Z,12.40
2018-06-13T07:37:49.556Z,12.40
2018-06-13T07:40:17.854Z,12.40
2018-06-13T07:42:46.047Z,12.40
2018-06-13T07:45:14.081Z,12.40
2018-06-13T07:47:42.377Z,12.40
2018-06-13T07:50:10.523Z,12.40
2018-06-13T07:55:06.388Z,12.50
2018-06-13T07:57:34.578Z,12.50
2018-06-13T08:00:02.833Z,12.60
2018-06-13T08:02:30.925Z,12.60
2018-06-13T08:04:59.096Z,12.60
2018-06-13T08:07:27.276Z,12.60
2018-06-13T08:09:55.359Z,12.60
2018-06-13T08:12:23.556Z,12.70
2018-06-13T08:14:51.893Z,12.70
2018-06-13T08:17:21.152Z,12.70
2018-06-13T08:22:21.697Z,12.80
2018-06-13T08:24:53.789Z,12.80
2018-06-13T08:27:27.764Z,12.80
2018-06-13T08:29:58.115Z,12.80
2018-06-13T08:37:37.962Z,12.90
2018-06-13T08:40:06.483Z,13.00
2018-06-13T08:42:35.910Z,13.00
2018-06-13T08:45:04.281Z,13.00
2018-06-13T08:50:04.447Z,13.00
2018-06-13T08:52:34.003Z,13.00
2018-06-13T08:55:03.077Z,13.00
2018-06-13T08:57:31.233Z,12.90
2018-06-13T08:59:59.808Z,12.90
2018-06-13T09:02:28.263Z,12.90
2018-06-13T09:09:54.188Z,12.80
2018-06-13T09:12:22.667Z,12.80
2018-06-13T09:15:12.114Z,12.80
2018-06-13T09:20:27.927Z,12.80
2018-06-13T09:23:06.736Z,12.90
2018-06-13T09:25:45.984Z,13.00
2018-06-13T09:28:38.182Z,13.00
2018-06-13T09:31:20.794Z,13.00
2018-06-13T09:36:47.615Z,12.90
2018-06-13T09:39:39.763Z,12.90
2018-06-13T09:42:20.688Z,13.00
2018-06-13T09:45:01.455Z,13.10
2018-06-13T09:47:40.664Z,13.10
2018-06-13T09:52:59.227Z,13.10
2018-06-13T09:55:36.361Z,13.20
2018-06-13T09:58:23.537Z,13.10
2018-06-13T10:01:00.984Z,13.20
2018-06-13T10:06:07.075Z,13.40
2018-06-13T10:11:03.130Z,13.50
2018-06-13T10:13:31.188Z,13.60
2018-06-13T10:15:59.389Z,13.60
2018-06-13T10:18:27.496Z,13.70
2018-06-13T10:20:55.819Z,13.70
2018-06-13T10:23:24.004Z,13.60
2018-06-13T10:25:52.100Z,13.50
2018-06-13T10:28:20.227Z,13.50
2018-06-13T10:30:48.409Z,13.60
2018-06-13T10:33:16.472Z,13.50
2018-06-13T10:35:44.660Z,13.60
2018-06-13T10:40:40.696Z,13.60
2018-06-13T10:43:08.788Z,13.60
2018-06-13T10:45:36.836Z,13.60
2018-06-13T10:50:32.987Z,13.70
2018-06-13T10:53:01.074Z,13.70
2018-06-13T10:55:29.155Z,13.70
2018-06-13T10:57:57.344Z,13.70
2018-06-13T11:00:25.462Z,13.70
2018-06-13T11:05:21.232Z,13.90
2018-06-13T11:07:49.308Z,13.90
2018-06-13T11:10:17.367Z,13.80
2018-06-13T11:12:45.429Z,13.80
2018-06-13T11:15:13.518Z,13.80
2018-06-13T11:17:41.682Z,13.80
2018-06-13T11:20:09.904Z,13.70
2018-06-13T11:22:38.041Z,13.60
2018-06-13T11:25:06.112Z,13.60
2018-06-13T11:27:34.199Z,13.60
2018-06-13T11:30:02.392Z,13.50
2018-06-13T11:32:38.351Z,13.50
2018-06-13T11:37:39.705Z,13.60
2018-06-13T11:42:41.576Z,13.70
2018-06-13T11:45:14.811Z,13.70
2018-06-13T11:47:45.966Z,13.80
2018-06-13T11:50:15.859Z,13.90
2018-06-13T11:55:14.905Z,14.00
2018-06-13T11:57:44.405Z,14.00
2018-06-13T12:00:15.420Z,14.00
2018-06-13T12:02:45.396Z,14.00
2018-06-13T12:07:46.081Z,14.10
2018-06-13T12:10:16.253Z,14.00
2018-06-13T12:12:45.176Z,14.10
2018-06-13T12:15:16.202Z,14.00
2018-06-13T12:17:44.925Z,14.10
2018-06-13T12:20:17.590Z,14.20
2018-06-13T12:22:47.192Z,14.20
2018-06-13T12:25:16.421Z,14.20
2018-06-13T12:27:45.395Z,14.30
2018-06-13T12:30:14.448Z,14.30
2018-06-13T12:32:45.618Z,14.30
2018-06-13T12:35:13.939Z,14.40
2018-06-13T12:42:39.253Z,14.70
2018-06-13T12:45:07.332Z,14.70
2018-06-13T12:47:35.539Z,14.70
2018-06-13T12:50:03.556Z,14.80
2018-06-13T12:54:59.629Z,14.60
2018-06-13T12:57:27.772Z,14.50
2018-06-13T13:02:23.741Z,14.40
2018-06-13T13:04:51.845Z,14.40
2018-06-13T13:07:19.876Z,14.40
2018-06-13T13:09:48.072Z,14.40
2018-06-13T13:12:16.143Z,14.40
2018-06-13T13:14:44.207Z,14.40
2018-06-13T13:17:12.293Z,14.40
2018-06-13T13:19:40.443Z,14.40
2018-06-13T13:22:08.651Z,14.40
2018-06-13T13:24:36.796Z,14.50
2018-06-13T13:27:05.025Z,14.50
2018-06-13T13:29:33.174Z,14.60
2018-06-13T13:32:01.236Z,14.60
2018-06-13T13:34:29.391Z,14.70
2018-06-13T13:36:57.439Z,14.70
2018-06-13T13:39:25.556Z,14.70
2018-06-13T13:41:53.848Z,14.90
2018-06-13T13:44:22.139Z,14.90
2018-06-13T13:46:50.187Z,15.00
2018-06-13T13:49:18.469Z,15.10
2018-06-13T13:51:46.655Z,15.00
2018-06-13T13:54:14.858Z,14.90
2018-06-13T13:56:42.979Z,14.70
2018-06-13T13:59:11.267Z,14.50
2018-06-13T14:01:39.334Z,14.40
2018-06-13T14:04:07.636Z,14.30
2018-06-13T14:06:35.764Z,14.20
2018-06-13T14:14:01.554Z,14.00
2018-06-13T14:16:29.644Z,14.00
2018-06-13T14:18:57.803Z,14.00
2018-06-13T14:21:25.952Z,14.00
2018-06-13T14:26:22.026Z,13.90
2018-06-13T14:28:50.055Z,13.90
2018-06-13T14:31:18.065Z,13.90
2018-06-13T14:33:46.134Z,13.80
2018-06-13T14:36:14.206Z,13.80
2018-06-13T14:38:42.298Z,13.80
2018-06-13T14:41:10.335Z,13.80
2018-06-13T14:46:06.689Z,13.80
2018-06-13T14:48:34.892Z,13.80
2018-06-13T14:51:02.986Z,13.80
2018-06-13T14:53:31.311Z,13.80
2018-06-13T14:58:32.692Z,13.70
2018-06-13T15:01:00.775Z,13.70
2018-06-13T15:03:28.932Z,13.70
2018-06-13T15:08:24.980Z,13.70
2018-06-13T15:10:53.082Z,13.70
2018-06-13T15:13:21.138Z,13.70
2018-06-13T15:15:49.414Z,13.70
2018-06-13T15:18:17.516Z,13.70
2018-06-13T15:20:45.563Z,13.80
2018-06-13T15:23:13.643Z,13.80
2018-06-13T15:25:41.692Z,13.80
2018-06-13T15:30:37.735Z,13.90
2018-06-13T15:35:33.589Z,13.90
2018-06-13T15:38:01.657Z,13.90
2018-06-13T15:40:29.930Z,13.90
2018-06-13T15:45:26.065Z,13.90
2018-06-13T15:50:22.191Z,13.80
2018-06-13T15:52:50.227Z,13.80
2018-06-13T15:55:18.271Z,13.70
2018-06-13T15:57:46.388Z,13.70
2018-06-13T16:00:14.473Z,13.70
2018-06-13T16:02:42.491Z,13.70
2018-06-13T16:05:10.683Z,13.70
2018-06-13T16:07:38.832Z,13.70
2018-06-13T16:12:35.044Z,13.70
2018-06-13T16:15:03.067Z,13.70
2018-06-13T16:17:31.149Z,13.60
2018-06-13T16:19:59.232Z,13.60
2018-06-13T16:22:27.287Z,13.60
2018-06-13T16:24:55.372Z,13.60
2018-06-13T16:27:23.590Z,13.60
2018-06-13T16:29:51.591Z,13.60
2018-06-13T16:34:47.658Z,13.60
2018-06-13T16:37:16.055Z,13.60
2018-06-13T16:39:44.102Z,13.60
2018-06-13T16:42:12.311Z,13.60
2018-06-13T16:44:40.586Z,13.60
2018-06-13T16:47:08.748Z,13.60
2018-06-13T16:49:36.795Z,13.60
2018-06-13T16:54:52.512Z,13.60
2018-06-13T16:57:20.708Z,13.60
2018-06-13T16:59:48.763Z,13.50
2018-06-13T17:02:16.842Z,13.50
2018-06-13T17:04:44.897Z,13.50
2018-06-13T17:09:40.828Z,13.50
2018-06-13T17:14:36.723Z,13.40
2018-06-13T17:17:04.779Z,13.40
2018-06-13T17:19:32.948Z,13.40
2018-06-13T17:22:01.059Z,13.40
2018-06-13T17:24:29.202Z,13.30
2018-06-13T17:26:57.278Z,13.30
2018-06-13T17:29:25.359Z,13.30
2018-06-13T17:31:53.436Z,13.30
2018-06-13T17:34:21.588Z,13.30
2018-06-13T17:36:49.885Z,13.30
2018-06-13T17:39:17.946Z,13.20
2018-06-13T17:41:46.128Z,13.20
2018-06-13T17:44:14.271Z,13.20
2018-06-13T17:49:10.279Z,13.20
2018-06-13T17:51:38.317Z,13.20
2018-06-13T17:54:06.505Z,13.20
2018-06-13T17:56:34.575Z,13.20
2018-06-13T17:59:02.634Z,13.20
2018-06-13T18:01:30.740Z,13.20
2018-06-13T18:03:58.917Z,13.20
2018-06-13T18:06:26.947Z,13.10
2018-06-13T18:08:55.039Z,13.10
2018-06-13T18:11:23.482Z,13.10
2018-06-13T18:16:19.435Z,13.10
2018-06-13T18:18:47.620Z,13.10
2018-06-13T18:21:15.678Z,13.10
2018-06-13T18:23:43.891Z,13.10
2018-06-13T18:26:12.024Z,13.10
2018-06-13T18:31:08.093Z,13.00
2018-06-13T18:33:36.160Z,13.00
2018-06-13T18:36:04.340Z,13.00
2018-06-13T18:38:32.411Z,13.00
2018-06-13T18:41:00.602Z,13.00
2018-06-13T18:43:28.667Z,13.00
2018-06-13T18:45:56.749Z,13.00
2018-06-13T18:48:24.958Z,12.90
2018-06-13T18:50:53.062Z,13.00
2018-06-13T18:55:49.156Z,13.00
2018-06-13T18:58:17.325Z,12.90
2018-06-13T19:00:45.459Z,12.90
2018-06-13T19:05:41.295Z,12.90
2018-06-13T19:10:37.074Z,12.90
2018-06-13T19:13:05.740Z,12.90
2018-06-13T19:15:33.907Z,12.90
2018-06-13T19:20:30.090Z,12.90
2018-06-13T19:22:58.132Z,12.90
2018-06-13T19:25:26.325Z,12.90
2018-06-13T19:27:54.413Z,12.80
2018-06-13T19:30:22.460Z,12.80
2018-06-13T19:32:50.533Z,12.80
2018-06-13T19:35:18.631Z,12.80
2018-06-13T19:37:46.668Z,12.80
2018-06-13T19:40:14.751Z,12.70
2018-06-13T19:42:42.928Z,12.70
2018-06-13T19:45:10.996Z,12.80
2018-06-13T19:47:44.755Z,12.70
2018-06-13T19:52:46.538Z,12.70
2018-06-13T19:55:20.234Z,12.70
2018-06-13T19:57:48.825Z,12.70
2018-06-13T20:00:17.293Z,12.70
2018-06-13T20:02:50.823Z,12.70
2018-06-13T20:05:24.504Z,12.60
2018-06-13T20:07:52.572Z,12.60
2018-06-13T20:10:20.792Z,12.60
2018-06-13T20:15:27.758Z,12.50
2018-06-13T20:18:01.272Z,12.50
2018-06-13T20:20:29.435Z,12.50
2018-06-13T20:22:57.563Z,12.50
2018-06-13T20:25:31.165Z,12.50
2018-06-13T20:28:04.910Z,12.50
2018-06-13T20:30:38.252Z,12.40
2018-06-13T20:33:06.444Z,12.40
2018-06-13T20:37:37.730Z,12.50
2018-06-13T20:40:05.866Z,12.50
2018-06-13T20:45:02.091Z,12.40
2018-06-13T20:47:30.192Z,12.40
2018-06-13T20:49:58.288Z,12.40
2018-06-13T20:52:26.537Z,12.40
2018-06-13T20:54:54.745Z,12.30
2018-06-13T20:57:22.779Z,12.30
2018-06-13T21:02:18.752Z,12.30
2018-06-13T21:04:46.927Z,12.30
2018-06-13T21:07:14.994Z,12.30
2018-06-13T21:09:43.066Z,12.30
2018-06-13T21:12:11.119Z,12.30
2018-06-13T21:17:07.085Z,12.30
2018-06-13T21:19:35.238Z,12.30
2018-06-13T21:22:03.345Z,12.30
2018-06-13T21:24:33.237Z,12.20
2018-06-13T21:27:04.923Z,12.30
2018-06-13T21:29:35.673Z,12.30
2018-06-13T21:34:33.012Z,12.30
2018-06-13T21:37:01.099Z,12.30
2018-06-13T21:39:29.164Z,12.30
2018-06-13T21:41:57.210Z,12.30
2018-06-13T21:46:53.348Z,12.30
2018-06-13T21:51:49.408Z,12.30
2018-06-13T21:54:17.496Z,12.30
2018-06-13T21:56:45.648Z,12.30
2018-06-13T22:01:41.641Z,12.40
2018-06-13T22:04:09.676Z,12.40
2018-06-13T22:06:37.880Z,12.40
2018-06-13T22:09:07.963Z,12.40
2018-06-13T22:11:40.499Z,12.30
2018-06-13T22:14:08.519Z,12.30
2018-06-13T22:16:36.617Z,12.30
2018-06-13T22:19:04.668Z,12.30
2018-06-13T22:21:32.776Z,12.30
2018-06-13T22:24:00.836Z,12.20
2018-06-13T22:26:29.021Z,12.30
2018-06-13T22:28:57.202Z,12.30
2018-06-13T22:31:25.335Z,12.30
2018-06-13T22:36:21.579Z,12.20
2018-06-13T22:41:18.652Z,12.20
2018-06-13T22:43:46.743Z,12.20
2018-06-13T22:46:14.903Z,12.20
2018-06-13T22:48:43.141Z,12.20
2018-06-13T22:51:11.247Z,12.20
2018-06-13T22:53:39.662Z,12.10
2018-06-13T22:56:07.827Z,12.20
2018-06-13T22:58:35.889Z,12.10
2018-06-13T23:01:08.483Z,12.10
2018-06-13T23:03:36.622Z,12.20
2018-06-13T23:08:35.361Z,12.10
2018-06-13T23:11:03.719Z,12.10
2018-06-13T23:13:31.820Z,12.10
2018-06-13T23:16:00.028Z,12.00
2018-06-13T23:18:28.683Z,12.00
2018-06-13T23:20:57.153Z,12.00
2018-06-13T23:23:25.226Z,12.00
2018-06-13T23:25:54.407Z,12.00
2018-06-13T23:30:50.457Z,11.90
2018-06-13T23:35:46.518Z,11.90
2018-06-13T23:38:15.076Z,11.90
2018-06-13T23:43:11.225Z,11.80
2018-06-13T23:48:07.173Z,11.80
2018-06-13T23:50:35.363Z,11.80
2018-06-13T23:53:03.412Z,11.80
2018-06-13T23:57:59.446Z,11.80
